Terminal Aerodrome Forecast
Issued by NWS Cleveland, OH

Home | Current Version | Previous Version | Graphics & Text | Print | Product List | Glossary Off
Versions: 1 2 3 4 5 6 7 8 9 10 11 12 13 14 15 16 17 18

679
FTUS41 KCLE 131128
TAFMFD
TAF
KMFD 131128Z 1312/1412 30010KT P6SM SCT035
     FM131400 30010G18KT P6SM BKN035
      TEMPO 1315/1319 5SM -SHSN OVC025
     FM140000 29006KT P6SM SCT035=

USA.gov is the U.S. government's official web portal to all federal, state and local government web resources and services.